sensor_id;sensor_type;location;lat;lon;timestamp;P1;durP1;ratioP1;P2;durP2;ratioP2
41261;SDS011;29629;52.532;13.352;2024-03-08T00:02:06;115.47;;;69.45;;
41261;SDS011;29629;52.532;13.352;2024-03-08T00:04:32;121.60;;;71.75;;
41261;SDS011;29629;52.532;13.352;2024-03-08T00:07:01;123.15;;;73.80;;
41261;SDS011;29629;52.532;13.352;2024-03-08T00:09:28;124.70;;;71.47;;
41261;SDS011;29629;52.532;13.352;2024-03-08T00:11:55;131.85;;;73.97;;
41261;SDS011;29629;52.532;13.352;2024-03-08T00:14:23;132.23;;;73.43;;
41261;SDS011;29629;52.532;13.352;2024-03-08T00:16:49;120.97;;;71.70;;
41261;SDS011;29629;52.532;13.352;2024-03-08T00:19:17;122.63;;;73.13;;
41261;SDS011;29629;52.532;13.352;2024-03-08T00:21:44;123.82;;;73.55;;
41261;SDS011;29629;52.532;13.352;2024-03-08T00:24:13;125.57;;;73.72;;
41261;SDS011;29629;52.532;13.352;2024-03-08T00:26:39;125.03;;;71.78;;
41261;SDS011;29629;52.532;13.352;2024-03-08T00:29:07;118.45;;;70.30;;
41261;SDS011;29629;52.532;13.352;2024-03-08T00:31:34;121.15;;;72.03;;
41261;SDS011;29629;52.532;13.352;2024-03-08T00:34:01;128.43;;;73.75;;
41261;SDS011;29629;52.532;13.352;2024-03-08T00:36:28;120.53;;;71.22;;
41261;SDS011;29629;52.532;13.352;2024-03-08T00:38:55;123.68;;;73.35;;
41261;SDS011;29629;52.532;13.352;2024-03-08T00:41:23;133.27;;;75.10;;
41261;SDS011;29629;52.532;13.352;2024-03-08T00:43:51;127.57;;;72.82;;
41261;SDS011;29629;52.532;13.352;2024-03-08T00:46:18;124.88;;;72.32;;
41261;SDS011;29629;52.532;13.352;2024-03-08T00:48:45;124.00;;;72.53;;
41261;SDS011;29629;52.532;13.352;2024-03-08T00:51:12;125.15;;;73.45;;
41261;SDS011;29629;52.532;13.352;2024-03-08T00:53:40;124.10;;;72.65;;
41261;SDS011;29629;52.532;13.352;2024-03-08T00:56:08;127.95;;;75.60;;
41261;SDS011;29629;52.532;13.352;2024-03-08T00:58:37;123.55;;;71.85;;
41261;SDS011;29629;52.532;13.352;2024-03-08T01:01:05;127.90;;;73.20;;
41261;SDS011;29629;52.532;13.352;2024-03-08T01:03:32;125.93;;;71.97;;
41261;SDS011;29629;52.532;13.352;2024-03-08T01:05:59;120.45;;;70.07;;
41261;SDS011;29629;52.532;13.352;2024-03-08T01:08:27;134.70;;;74.18;;
41261;SDS011;29629;52.532;13.352;2024-03-08T01:10:54;119.55;;;70.13;;
41261;SDS011;29629;52.532;13.352;2024-03-08T01:13:20;120.32;;;69.88;;
41261;SDS011;29629;52.532;13.352;2024-03-08T01:15:49;152.60;;;80.35;;
41261;SDS011;29629;52.532;13.352;2024-03-08T01:18:15;120.90;;;70.70;;
41261;SDS011;29629;52.532;13.352;2024-03-08T01:20:42;120.53;;;71.18;;
41261;SDS011;29629;52.532;13.352;2024-03-08T01:23:09;117.20;;;71.35;;
41261;SDS011;29629;52.532;13.352;2024-03-08T01:25:36;155.20;;;80.22;;
41261;SDS011;29629;52.532;13.352;2024-03-08T01:28:04;121.28;;;70.75;;
41261;SDS011;29629;52.532;13.352;2024-03-08T01:30:31;128.32;;;73.57;;
41261;SDS011;29629;52.532;13.352;2024-03-08T01:33:01;119.05;;;70.72;;
41261;SDS011;29629;52.532;13.352;2024-03-08T01:35:28;123.35;;;72.07;;
41261;SDS011;29629;52.532;13.352;2024-03-08T01:37:55;120.30;;;71.45;;
41261;SDS011;29629;52.532;13.352;2024-03-08T01:40:22;136.02;;;77.53;;
41261;SDS011;29629;52.532;13.352;2024-03-08T01:42:49;121.85;;;72.18;;
41261;SDS011;29629;52.532;13.352;2024-03-08T01:45:16;114.75;;;71.57;;
41261;SDS011;29629;52.532;13.352;2024-03-08T01:47:43;124.68;;;73.72;;
41261;SDS011;29629;52.532;13.352;2024-03-08T01:50:11;121.20;;;71.55;;
41261;SDS011;29629;52.532;13.352;2024-03-08T01:52:38;124.75;;;72.57;;
41261;SDS011;29629;52.532;13.352;2024-03-08T01:55:05;119.45;;;71.15;;
41261;SDS011;29629;52.532;13.352;2024-03-08T01:57:33;116.28;;;71.55;;
41261;SDS011;29629;52.532;13.352;2024-03-08T02:00:01;121.15;;;72.90;;
41261;SDS011;29629;52.532;13.352;2024-03-08T02:02:30;131.38;;;75.53;;
41261;SDS011;29629;52.532;13.352;2024-03-08T02:05:00;118.55;;;72.85;;
41261;SDS011;29629;52.532;13.352;2024-03-08T02:07:29;117.80;;;71.90;;
41261;SDS011;29629;52.532;13.352;2024-03-08T02:09:56;121.80;;;74.30;;
41261;SDS011;29629;52.532;13.352;2024-03-08T02:12:24;119.25;;;71.32;;
41261;SDS011;29629;52.532;13.352;2024-03-08T02:14:50;129.50;;;76.00;;
41261;SDS011;29629;52.532;13.352;2024-03-08T02:17:20;120.55;;;72.80;;
41261;SDS011;29629;52.532;13.352;2024-03-08T02:19:47;115.97;;;72.28;;
41261;SDS011;29629;52.532;13.352;2024-03-08T02:22:15;109.65;;;71.60;;
41261;SDS011;29629;52.532;13.352;2024-03-08T02:24:43;117.43;;;72.90;;
41261;SDS011;29629;52.532;13.352;2024-03-08T02:27:10;110.15;;;72.97;;
41261;SDS011;29629;52.532;13.352;2024-03-08T02:29:37;105.60;;;70.13;;
41261;SDS011;29629;52.532;13.352;2024-03-08T02:32:06;106.32;;;70.47;;
41261;SDS011;29629;52.532;13.352;2024-03-08T02:34:33;114.95;;;71.18;;
41261;SDS011;29629;52.532;13.352;2024-03-08T02:37:00;115.05;;;71.30;;
41261;SDS011;29629;52.532;13.352;2024-03-08T02:39:30;107.43;;;72.22;;
41261;SDS011;29629;52.532;13.352;2024-03-08T02:41:57;104.57;;;69.45;;
41261;SDS011;29629;52.532;13.352;2024-03-08T02:44:24;112.47;;;72.72;;
41261;SDS011;29629;52.532;13.352;2024-03-08T02:46:51;112.10;;;73.05;;
41261;SDS011;29629;52.532;13.352;2024-03-08T02:49:20;105.25;;;70.07;;
41261;SDS011;29629;52.532;13.352;2024-03-08T02:51:47;109.57;;;71.25;;
41261;SDS011;29629;52.532;13.352;2024-03-08T02:54:14;110.47;;;72.30;;
41261;SDS011;29629;52.532;13.352;2024-03-08T02:56:43;109.07;;;70.20;;
41261;SDS011;29629;52.532;13.352;2024-03-08T02:59:11;118.18;;;73.88;;
41261;SDS011;29629;52.532;13.352;2024-03-08T03:01:38;110.22;;;73.80;;
41261;SDS011;29629;52.532;13.352;2024-03-08T03:04:06;113.70;;;72.88;;
41261;SDS011;29629;52.532;13.352;2024-03-08T03:06:33;115.28;;;74.57;;
41261;SDS011;29629;52.532;13.352;2024-03-08T03:09:00;112.97;;;72.40;;
41261;SDS011;29629;52.532;13.352;2024-03-08T03:11:31;112.75;;;71.90;;
41261;SDS011;29629;52.532;13.352;2024-03-08T03:13:59;109.70;;;71.57;;
41261;SDS011;29629;52.532;13.352;2024-03-08T03:16:26;114.07;;;72.18;;
41261;SDS011;29629;52.532;13.352;2024-03-08T03:18:53;106.13;;;71.00;;
41261;SDS011;29629;52.532;13.352;2024-03-08T03:21:22;117.20;;;76.32;;
41261;SDS011;29629;52.532;13.352;2024-03-08T03:23:49;112.18;;;71.63;;
41261;SDS011;29629;52.532;13.352;2024-03-08T03:26:16;105.60;;;73.72;;
41261;SDS011;29629;52.532;13.352;2024-03-08T03:28:43;113.28;;;74.80;;
41261;SDS011;29629;52.532;13.352;2024-03-08T03:31:12;112.85;;;72.78;;
41261;SDS011;29629;52.532;13.352;2024-03-08T03:33:39;115.70;;;73.80;;
41261;SDS011;29629;52.532;13.352;2024-03-08T03:36:06;110.75;;;72.82;;
41261;SDS011;29629;52.532;13.352;2024-03-08T03:38:35;113.70;;;71.07;;
41261;SDS011;29629;52.532;13.352;2024-03-08T03:41:02;107.60;;;72.55;;
41261;SDS011;29629;52.532;13.352;2024-03-08T03:43:35;105.75;;;71.55;;
41261;SDS011;29629;52.532;13.352;2024-03-08T03:46:05;112.85;;;73.80;;
41261;SDS011;29629;52.532;13.352;2024-03-08T03:48:34;116.30;;;74.18;;
41261;SDS011;29629;52.532;13.352;2024-03-08T03:51:01;122.55;;;72.90;;
41261;SDS011;29629;52.532;13.352;2024-03-08T03:53:31;111.10;;;71.90;;
41261;SDS011;29629;52.532;13.352;2024-03-08T03:55:58;113.05;;;72.57;;
41261;SDS011;29629;52.532;13.352;2024-03-08T03:58:25;105.90;;;69.80;;
41261;SDS011;29629;52.532;13.352;2024-03-08T04:00:52;112.88;;;72.20;;
41261;SDS011;29629;52.532;13.352;2024-03-08T04:03:19;102.20;;;69.97;;
41261;SDS011;29629;52.532;13.352;2024-03-08T04:05:48;143.52;;;81.55;;
41261;SDS011;29629;52.532;13.352;2024-03-08T04:08:16;120.57;;;74.30;;
41261;SDS011;29629;52.532;13.352;2024-03-08T04:10:43;116.60;;;73.80;;
41261;SDS011;29629;52.532;13.352;2024-03-08T04:13:10;114.50;;;70.38;;
41261;SDS011;29629;52.532;13.352;2024-03-08T04:15:36;144.55;;;81.43;;
41261;SDS011;29629;52.532;13.352;2024-03-08T04:18:04;113.45;;;71.35;;
41261;SDS011;29629;52.532;13.352;2024-03-08T04:20:31;111.45;;;72.20;;
41261;SDS011;29629;52.532;13.352;2024-03-08T04:22:59;113.80;;;71.57;;
41261;SDS011;29629;52.532;13.352;2024-03-08T04:25:26;102.40;;;68.80;;
41261;SDS011;29629;52.532;13.352;2024-03-08T04:27:53;119.60;;;72.70;;
41261;SDS011;29629;52.532;13.352;2024-03-08T04:30:20;116.32;;;73.95;;
41261;SDS011;29629;52.532;13.352;2024-03-08T04:32:47;110.05;;;72.38;;
41261;SDS011;29629;52.532;13.352;2024-03-08T04:35:15;104.63;;;70.18;;
41261;SDS011;29629;52.532;13.352;2024-03-08T04:37:42;111.55;;;72.47;;
41261;SDS011;29629;52.532;13.352;2024-03-08T04:40:11;113.53;;;73.80;;
41261;SDS011;29629;52.532;13.352;2024-03-08T04:42:38;109.90;;;70.75;;
41261;SDS011;29629;52.532;13.352;2024-03-08T04:45:06;109.68;;;72.15;;
41261;SDS011;29629;52.532;13.352;2024-03-08T04:47:36;110.22;;;71.38;;
41261;SDS011;29629;52.532;13.352;2024-03-08T04:50:03;108.25;;;70.53;;
41261;SDS011;29629;52.532;13.352;2024-03-08T04:52:30;112.43;;;71.13;;
41261;SDS011;29629;52.532;13.352;2024-03-08T04:54:57;115.10;;;72.85;;
41261;SDS011;29629;52.532;13.352;2024-03-08T04:57:26;113.47;;;71.65;;
41261;SDS011;29629;52.532;13.352;2024-03-08T04:59:53;104.40;;;71.13;;
41261;SDS011;29629;52.532;13.352;2024-03-08T05:02:19;114.03;;;71.72;;
41261;SDS011;29629;52.532;13.352;2024-03-08T05:04:47;117.38;;;73.45;;
41261;SDS011;29629;52.532;13.352;2024-03-08T05:07:14;113.97;;;71.50;;
41261;SDS011;29629;52.532;13.352;2024-03-08T05:09:41;122.78;;;74.32;;
41261;SDS011;29629;52.532;13.352;2024-03-08T05:12:16;116.57;;;73.40;;
41261;SDS011;29629;52.532;13.352;2024-03-08T05:14:44;114.97;;;72.45;;
41261;SDS011;29629;52.532;13.352;2024-03-08T05:17:14;112.72;;;73.28;;
41261;SDS011;29629;52.532;13.352;2024-03-08T05:19:41;109.82;;;72.15;;
41261;SDS011;29629;52.532;13.352;2024-03-08T05:22:08;111.40;;;72.03;;
41261;SDS011;29629;52.532;13.352;2024-03-08T05:24:35;103.97;;;68.93;;
41261;SDS011;29629;52.532;13.352;2024-03-08T05:27:02;112.07;;;72.38;;
41261;SDS011;29629;52.532;13.352;2024-03-08T05:29:29;103.63;;;69.97;;
41261;SDS011;29629;52.532;13.352;2024-03-08T05:31:58;115.05;;;72.50;;
41261;SDS011;29629;52.532;13.352;2024-03-08T05:34:25;117.13;;;74.00;;
41261;SDS011;29629;52.532;13.352;2024-03-08T05:36:53;119.80;;;74.47;;
41261;SDS011;29629;52.532;13.352;2024-03-08T05:39:20;114.60;;;74.45;;
41261;SDS011;29629;52.532;13.352;2024-03-08T05:41:47;103.30;;;70.47;;
41261;SDS011;29629;52.532;13.352;2024-03-08T05:44:15;125.55;;;76.75;;
41261;SDS011;29629;52.532;13.352;2024-03-08T05:46:42;124.18;;;77.25;;
41261;SDS011;29629;52.532;13.352;2024-03-08T05:49:11;120.20;;;75.95;;
41261;SDS011;29629;52.532;13.352;2024-03-08T05:51:39;118.47;;;75.70;;
41261;SDS011;29629;52.532;13.352;2024-03-08T05:54:07;125.22;;;76.07;;
41261;SDS011;29629;52.532;13.352;2024-03-08T05:56:35;121.70;;;76.32;;
41261;SDS011;29629;52.532;13.352;2024-03-08T05:59:02;116.90;;;74.10;;
41261;SDS011;29629;52.532;13.352;2024-03-08T06:01:30;122.72;;;74.28;;
41261;SDS011;29629;52.532;13.352;2024-03-08T06:03:57;114.22;;;74.07;;
41261;SDS011;29629;52.532;13.352;2024-03-08T06:06:25;118.47;;;75.13;;
41261;SDS011;29629;52.532;13.352;2024-03-08T06:08:52;121.07;;;73.82;;
41261;SDS011;29629;52.532;13.352;2024-03-08T06:11:21;112.97;;;73.40;;
41261;SDS011;29629;52.532;13.352;2024-03-08T06:13:48;111.13;;;73.18;;
41261;SDS011;29629;52.532;13.352;2024-03-08T06:16:15;124.60;;;75.00;;
41261;SDS011;29629;52.532;13.352;2024-03-08T06:18:42;116.03;;;75.00;;
41261;SDS011;29629;52.532;13.352;2024-03-08T06:21:09;123.85;;;74.93;;
41261;SDS011;29629;52.532;13.352;2024-03-08T06:23:39;102.97;;;69.68;;
41261;SDS011;29629;52.532;13.352;2024-03-08T06:26:05;117.45;;;72.15;;
41261;SDS011;29629;52.532;13.352;2024-03-08T06:28:32;123.50;;;75.55;;
41261;SDS011;29629;52.532;13.352;2024-03-08T06:31:00;118.68;;;74.22;;
41261;SDS011;29629;52.532;13.352;2024-03-08T06:33:27;113.38;;;70.50;;
41261;SDS011;29629;52.532;13.352;2024-03-08T06:35:55;116.68;;;72.85;;
41261;SDS011;29629;52.532;13.352;2024-03-08T06:38:22;118.32;;;73.90;;
41261;SDS011;29629;52.532;13.352;2024-03-08T06:40:51;121.65;;;75.55;;
41261;SDS011;29629;52.532;13.352;2024-03-08T06:43:18;116.70;;;73.85;;
41261;SDS011;29629;52.532;13.352;2024-03-08T06:45:45;132.15;;;77.72;;
41261;SDS011;29629;52.532;13.352;2024-03-08T06:48:13;118.93;;;74.88;;
41261;SDS011;29629;52.532;13.352;2024-03-08T06:50:42;118.70;;;74.43;;
41261;SDS011;29629;52.532;13.352;2024-03-08T06:53:09;113.93;;;73.22;;
41261;SDS011;29629;52.532;13.352;2024-03-08T06:55:36;124.13;;;76.53;;
41261;SDS011;29629;52.532;13.352;2024-03-08T06:58:07;101.85;;;68.40;;
41261;SDS011;29629;52.532;13.352;2024-03-08T07:00:35;118.65;;;74.13;;
41261;SDS011;29629;52.532;13.352;2024-03-08T07:03:02;112.80;;;71.60;;
41261;SDS011;29629;52.532;13.352;2024-03-08T07:05:37;118.90;;;75.95;;
41261;SDS011;29629;52.532;13.352;2024-03-08T07:08:05;115.60;;;75.03;;
41261;SDS011;29629;52.532;13.352;2024-03-08T07:10:32;113.85;;;72.03;;
41261;SDS011;29629;52.532;13.352;2024-03-08T07:13:00;108.80;;;72.03;;
41261;SDS011;29629;52.532;13.352;2024-03-08T07:15:29;119.72;;;73.22;;
41261;SDS011;29629;52.532;13.352;2024-03-08T07:17:56;119.90;;;73.80;;
41261;SDS011;29629;52.532;13.352;2024-03-08T07:20:24;127.38;;;76.65;;
41261;SDS011;29629;52.532;13.352;2024-03-08T07:22:51;119.82;;;73.10;;
41261;SDS011;29629;52.532;13.352;2024-03-08T07:25:19;113.38;;;73.05;;
41261;SDS011;29629;52.532;13.352;2024-03-08T07:27:46;112.25;;;71.07;;
41261;SDS011;29629;52.532;13.352;2024-03-08T07:30:14;121.38;;;74.15;;
41261;SDS011;29629;52.532;13.352;2024-03-08T07:33:03;121.57;;;73.30;;
41261;SDS011;29629;52.532;13.352;2024-03-08T07:35:32;113.72;;;72.95;;
41261;SDS011;29629;52.532;13.352;2024-03-08T07:38:01;114.55;;;72.80;;
41261;SDS011;29629;52.532;13.352;2024-03-08T07:40:30;115.47;;;73.65;;
41261;SDS011;29629;52.532;13.352;2024-03-08T07:42:57;113.30;;;72.95;;
41261;SDS011;29629;52.532;13.352;2024-03-08T07:45:24;119.72;;;73.90;;
41261;SDS011;29629;52.532;13.352;2024-03-08T07:47:51;118.82;;;74.32;;
41261;SDS011;29629;52.532;13.352;2024-03-08T07:50:20;111.78;;;72.05;;
41261;SDS011;29629;52.532;13.352;2024-03-08T07:52:47;125.28;;;75.20;;
41261;SDS011;29629;52.532;13.352;2024-03-08T07:55:14;114.60;;;73.55;;
41261;SDS011;29629;52.532;13.352;2024-03-08T07:57:41;112.72;;;71.57;;
41261;SDS011;29629;52.532;13.352;2024-03-08T08:00:09;120.38;;;74.38;;
41261;SDS011;29629;52.532;13.352;2024-03-08T08:02:42;129.82;;;79.63;;
41261;SDS011;29629;52.532;13.352;2024-03-08T08:05:10;129.20;;;78.35;;
41261;SDS011;29629;52.532;13.352;2024-03-08T08:07:45;128.68;;;80.22;;
41261;SDS011;29629;52.532;13.352;2024-03-08T08:10:12;128.25;;;81.47;;
41261;SDS011;29629;52.532;13.352;2024-03-08T08:12:43;128.88;;;82.50;;
41261;SDS011;29629;52.532;13.352;2024-03-08T08:15:11;135.73;;;83.57;;
41261;SDS011;29629;52.532;13.352;2024-03-08T08:17:43;142.73;;;86.38;;
41261;SDS011;29629;52.532;13.352;2024-03-08T08:20:10;134.85;;;86.78;;
41261;SDS011;29629;52.532;13.352;2024-03-08T08:22:37;140.43;;;88.22;;
41261;SDS011;29629;52.532;13.352;2024-03-08T08:25:07;148.85;;;88.90;;
41261;SDS011;29629;52.532;13.352;2024-03-08T08:27:38;143.18;;;86.00;;
41261;SDS011;29629;52.532;13.352;2024-03-08T08:30:08;141.75;;;86.82;;
41261;SDS011;29629;52.532;13.352;2024-03-08T08:32:36;135.18;;;82.68;;
41261;SDS011;29629;52.532;13.352;2024-03-08T08:35:04;128.10;;;80.57;;
41261;SDS011;29629;52.532;13.352;2024-03-08T08:37:32;134.52;;;81.82;;
41261;SDS011;29629;52.532;13.352;2024-03-08T08:40:01;127.15;;;80.28;;
41261;SDS011;29629;52.532;13.352;2024-03-08T08:42:32;129.60;;;81.57;;
41261;SDS011;29629;52.532;13.352;2024-03-08T08:44:59;128.63;;;79.82;;
41261;SDS011;29629;52.532;13.352;2024-03-08T08:47:26;124.05;;;77.80;;
41261;SDS011;29629;52.532;13.352;2024-03-08T08:50:06;124.05;;;77.28;;
41261;SDS011;29629;52.532;13.352;2024-03-08T08:52:36;121.95;;;78.63;;
41261;SDS011;29629;52.532;13.352;2024-03-08T08:55:04;113.28;;;76.72;;
41261;SDS011;29629;52.532;13.352;2024-03-08T08:57:33;119.55;;;78.47;;
41261;SDS011;29629;52.532;13.352;2024-03-08T09:00:00;119.28;;;74.85;;
41261;SDS011;29629;52.532;13.352;2024-03-08T09:02:32;127.68;;;79.32;;
41261;SDS011;29629;52.532;13.352;2024-03-08T09:04:59;111.65;;;75.18;;
41261;SDS011;29629;52.532;13.352;2024-03-08T09:07:26;114.53;;;75.20;;
41261;SDS011;29629;52.532;13.352;2024-03-08T09:09:53;100.05;;;70.30;;
41261;SDS011;29629;52.532;13.352;2024-03-08T09:12:22;108.50;;;74.85;;
41261;SDS011;29629;52.532;13.352;2024-03-08T09:14:50;100.30;;;72.25;;
41261;SDS011;29629;52.532;13.352;2024-03-08T09:17:17;83.13;;;59.60;;
41261;SDS011;29629;52.532;13.352;2024-03-08T09:19:45;103.38;;;71.22;;
41261;SDS011;29629;52.532;13.352;2024-03-08T09:22:12;97.60;;;65.55;;
41261;SDS011;29629;52.532;13.352;2024-03-08T09:24:39;82.95;;;58.20;;
41261;SDS011;29629;52.532;13.352;2024-03-08T09:27:08;85.25;;;59.60;;
41261;SDS011;29629;52.532;13.352;2024-03-08T09:29:35;95.85;;;65.65;;
41261;SDS011;29629;52.532;13.352;2024-03-08T09:32:03;104.78;;;70.53;;
41261;SDS011;29629;52.532;13.352;2024-03-08T09:34:31;114.32;;;77.28;;
41261;SDS011;29629;52.532;13.352;2024-03-08T09:36:58;120.60;;;82.57;;
41261;SDS011;29629;52.532;13.352;2024-03-08T09:39:31;119.65;;;80.68;;
41261;SDS011;29629;52.532;13.352;2024-03-08T09:41:58;120.88;;;81.35;;
41261;SDS011;29629;52.532;13.352;2024-03-08T09:44:25;122.88;;;82.55;;
41261;SDS011;29629;52.532;13.352;2024-03-08T09:46:54;121.20;;;79.22;;
41261;SDS011;29629;52.532;13.352;2024-03-08T09:49:25;92.00;;;63.08;;
41261;SDS011;29629;52.532;13.352;2024-03-08T09:51:54;98.10;;;66.78;;
41261;SDS011;29629;52.532;13.352;2024-03-08T09:54:22;105.60;;;70.60;;
41261;SDS011;29629;52.532;13.352;2024-03-08T09:56:49;115.05;;;77.95;;
41261;SDS011;29629;52.532;13.352;2024-03-08T09:59:18;119.40;;;80.47;;
41261;SDS011;29629;52.532;13.352;2024-03-08T10:02:12;85.75;;;61.88;;
41261;SDS011;29629;52.532;13.352;2024-03-08T10:04:42;86.15;;;60.42;;
41261;SDS011;29629;52.532;13.352;2024-03-08T10:07:11;69.32;;;60.67;;
41261;SDS011;29629;52.532;13.352;2024-03-08T10:09:38;77.88;;;59.05;;
41261;SDS011;29629;52.532;13.352;2024-03-08T10:12:07;106.78;;;73.68;;
41261;SDS011;29629;52.532;13.352;2024-03-08T10:14:38;89.38;;;64.28;;
41261;SDS011;29629;52.532;13.352;2024-03-08T10:17:07;96.28;;;87.65;;
41261;SDS011;29629;52.532;13.352;2024-03-08T10:19:34;74.57;;;59.72;;
41261;SDS011;29629;52.532;13.352;2024-03-08T10:22:02;83.05;;;61.53;;
41261;SDS011;29629;52.532;13.352;2024-03-08T10:24:37;97.22;;;66.22;;
41261;SDS011;29629;52.532;13.352;2024-03-08T10:27:05;77.15;;;58.67;;
41261;SDS011;29629;52.532;13.352;2024-03-08T10:29:32;89.15;;;80.40;;
41261;SDS011;29629;52.532;13.352;2024-03-08T10:32:01;80.88;;;72.57;;
41261;SDS011;29629;52.532;13.352;2024-03-08T10:34:30;80.57;;;62.72;;
41261;SDS011;29629;52.532;13.352;2024-03-08T10:36:58;76.55;;;65.43;;
41261;SDS011;29629;52.532;13.352;2024-03-08T10:39:31;249.52;;;236.85;;
41261;SDS011;29629;52.532;13.352;2024-03-08T10:42:02;233.23;;;220.80;;
41261;SDS011;29629;52.532;13.352;2024-03-08T10:44:40;99.47;;;90.32;;
41261;SDS011;29629;52.532;13.352;2024-03-08T10:47:18;80.07;;;65.53;;
41261;SDS011;29629;52.532;13.352;2024-03-08T10:49:51;86.55;;;78.25;;
41261;SDS011;29629;52.532;13.352;2024-03-08T10:52:22;145.27;;;134.68;;
41261;SDS011;29629;52.532;13.352;2024-03-08T10:54:49;80.55;;;61.17;;
41261;SDS011;29629;52.532;13.352;2024-03-08T10:57:21;109.05;;;100.25;;
41261;SDS011;29629;52.532;13.352;2024-03-08T10:59:49;200.98;;;189.73;;
41261;SDS011;29629;52.532;13.352;2024-03-08T11:02:17;232.85;;;220.43;;
41261;SDS011;29629;52.532;13.352;2024-03-08T11:04:45;288.20;;;273.90;;
41261;SDS011;29629;52.532;13.352;2024-03-08T11:07:14;262.13;;;249.13;;
41261;SDS011;29629;52.532;13.352;2024-03-08T11:09:46;177.70;;;167.57;;
41261;SDS011;29629;52.532;13.352;2024-03-08T11:12:23;172.82;;;161.95;;
41261;SDS011;29629;52.532;13.352;2024-03-08T11:14:54;81.38;;;72.80;;
41261;SDS011;29629;52.532;13.352;2024-03-08T11:17:25;365.10;;;347.50;;
41261;SDS011;29629;52.532;13.352;2024-03-08T11:20:08;440.35;;;419.67;;
41261;SDS011;29629;52.532;13.352;2024-03-08T11:22:41;440.13;;;420.95;;
41261;SDS011;29629;52.532;13.352;2024-03-08T11:28:11;449.83;;;428.67;;
41261;SDS011;29629;52.532;13.352;2024-03-08T11:30:46;523.10;;;499.98;;
41261;SDS011;29629;52.532;13.352;2024-03-08T11:33:35;294.23;;;279.60;;
41261;SDS011;29629;52.532;13.352;2024-03-08T11:36:02;424.92;;;404.73;;
41261;SDS011;29629;52.532;13.352;2024-03-08T11:38:39;469.48;;;447.63;;
41261;SDS011;29629;52.532;13.352;2024-03-08T11:41:08;510.45;;;487.55;;
41261;SDS011;29629;52.532;13.352;2024-03-08T11:43:39;511.40;;;488.13;;
41261;SDS011;29629;52.532;13.352;2024-03-08T11:46:09;404.70;;;385.42;;
41261;SDS011;29629;52.532;13.352;2024-03-08T11:48:37;371.38;;;353.77;;
41261;SDS011;29629;52.532;13.352;2024-03-08T11:51:06;467.75;;;445.70;;
41261;SDS011;29629;52.532;13.352;2024-03-08T11:53:35;501.60;;;478.25;;
41261;SDS011;29629;52.532;13.352;2024-03-08T11:56:06;479.98;;;457.77;;
41261;SDS011;29629;52.532;13.352;2024-03-08T11:58:35;414.00;;;394.45;;
41261;SDS011;29629;52.532;13.352;2024-03-08T12:01:03;429.63;;;409.30;;
41261;SDS011;29629;52.532;13.352;2024-03-08T12:03:32;531.42;;;507.05;;
41261;SDS011;29629;52.532;13.352;2024-03-08T12:05:59;538.38;;;513.30;;
41261;SDS011;29629;52.532;13.352;2024-03-08T12:08:28;528.92;;;504.23;;
41261;SDS011;29629;52.532;13.352;2024-03-08T12:10:57;475.80;;;453.40;;
41261;SDS011;29629;52.532;13.352;2024-03-08T12:13:27;465.33;;;442.77;;
41261;SDS011;29629;52.532;13.352;2024-03-08T12:15:56;534.03;;;510.08;;
41261;SDS011;29629;52.532;13.352;2024-03-08T12:18:24;440.13;;;419.40;;
41261;SDS011;29629;52.532;13.352;2024-03-08T12:21:03;446.45;;;425.23;;
41261;SDS011;29629;52.532;13.352;2024-03-08T12:23:33;399.15;;;379.35;;
41261;SDS011;29629;52.532;13.352;2024-03-08T12:26:12;347.23;;;328.65;;
41261;SDS011;29629;52.532;13.352;2024-03-08T12:28:41;402.17;;;382.77;;
41261;SDS011;29629;52.532;13.352;2024-03-08T12:31:11;441.25;;;419.63;;
41261;SDS011;29629;52.532;13.352;2024-03-08T12:33:46;374.83;;;355.30;;
41261;SDS011;29629;52.532;13.352;2024-03-08T12:36:15;284.80;;;269.15;;
41261;SDS011;29629;52.532;13.352;2024-03-08T12:38:43;283.92;;;268.02;;
41261;SDS011;29629;52.532;13.352;2024-03-08T12:41:13;454.15;;;432.45;;
41261;SDS011;29629;52.532;13.352;2024-03-08T12:43:41;350.33;;;333.25;;
41261;SDS011;29629;52.532;13.352;2024-03-08T12:46:13;81.20;;;67.00;;
41261;SDS011;29629;52.532;13.352;2024-03-08T12:48:40;272.67;;;258.63;;
41261;SDS011;29629;52.532;13.352;2024-03-08T12:51:12;376.42;;;358.17;;
41261;SDS011;29629;52.532;13.352;2024-03-08T12:53:39;406.92;;;387.38;;
41261;SDS011;29629;52.532;13.352;2024-03-08T12:56:09;344.52;;;329.10;;
41261;SDS011;29629;52.532;13.352;2024-03-08T12:58:36;397.52;;;378.77;;
41261;SDS011;29629;52.532;13.352;2024-03-08T13:01:05;384.65;;;365.45;;
41261;SDS011;29629;52.532;13.352;2024-03-08T13:03:33;525.58;;;502.08;;
41261;SDS011;29629;52.532;13.352;2024-03-08T13:06:00;516.10;;;492.42;;
41261;SDS011;29629;52.532;13.352;2024-03-08T13:08:28;423.73;;;403.35;;
41261;SDS011;29629;52.532;13.352;2024-03-08T13:10:56;382.38;;;363.42;;
41261;SDS011;29629;52.532;13.352;2024-03-08T13:13:24;200.95;;;188.55;;
41261;SDS011;29629;52.532;13.352;2024-03-08T13:15:51;149.93;;;137.27;;
41261;SDS011;29629;52.532;13.352;2024-03-08T13:18:19;80.40;;;67.00;;
41261;SDS011;29629;52.532;13.352;2024-03-08T13:20:46;97.88;;;63.17;;
41261;SDS011;29629;52.532;13.352;2024-03-08T13:23:15;91.20;;;82.22;;
41261;SDS011;29629;52.532;13.352;2024-03-08T13:25:42;114.22;;;99.28;;
41261;SDS011;29629;52.532;13.352;2024-03-08T13:28:12;167.98;;;156.73;;
41261;SDS011;29629;52.532;13.352;2024-03-08T13:30:40;165.27;;;153.60;;
41261;SDS011;29629;52.532;13.352;2024-03-08T13:33:09;199.05;;;187.40;;
41261;SDS011;29629;52.532;13.352;2024-03-08T13:35:37;271.92;;;254.50;;
41261;SDS011;29629;52.532;13.352;2024-03-08T13:38:06;324.95;;;309.08;;
41261;SDS011;29629;52.532;13.352;2024-03-08T13:40:34;91.63;;;73.93;;
41261;SDS011;29629;52.532;13.352;2024-03-08T13:43:01;96.70;;;87.63;;
41261;SDS011;29629;52.532;13.352;2024-03-08T13:45:28;85.45;;;61.33;;
41261;SDS011;29629;52.532;13.352;2024-03-08T13:47:56;103.68;;;63.97;;
41261;SDS011;29629;52.532;13.352;2024-03-08T13:50:24;120.55;;;81.30;;
41261;SDS011;29629;52.532;13.352;2024-03-08T13:52:53;118.43;;;79.05;;
41261;SDS011;29629;52.532;13.352;2024-03-08T13:55:20;126.95;;;82.15;;
41261;SDS011;29629;52.532;13.352;2024-03-08T13:57:47;131.30;;;81.80;;
41261;SDS011;29629;52.532;13.352;2024-03-08T14:00:16;125.57;;;79.25;;
41261;SDS011;29629;52.532;13.352;2024-03-08T14:02:47;130.50;;;81.07;;
41261;SDS011;29629;52.532;13.352;2024-03-08T14:05:14;124.63;;;77.55;;
41261;SDS011;29629;52.532;13.352;2024-03-08T14:07:42;121.28;;;77.03;;